Leary, Georgia
Current Conditions -  °F | °C
As of 11:53 AM on Sunday 23 Nov 2014 (Local Time) from KABY Reporting Station
Haze Haze  
Wind Chill: 68°   Ceiling: 500
Heat Index: 68°   Visibility: 6mi
Dew Point: 67°   Wind: 8mph
Humidity: 96%   Direction: 130°SE
Pressure: 29.88"   Gusts: NA
Location:  31.49°N, 84.51°W
Report Text: KABY 231653Z 13007KT 6SM BR OVC005 20/19 A2988 RMK AO2 PRESFR SLP117 T02000194
Loading
Personal Weather Stations






























Interactive Weather Map New forecast layout! Learn more

10-Day Weather Forecast

Advertisements
Track Severe Weather on mobile